sensor_id;sensor_type;location;lat;lon;timestamp;P1;durP1;ratioP1;P2;durP2;ratioP2
1294;SDS011;640;48.310;11.728;2023-04-25T00:00:40;4.05;;;2.00;;
1294;SDS011;640;48.310;11.728;2023-04-25T00:03:08;4.83;;;1.90;;
1294;SDS011;640;48.310;11.728;2023-04-25T00:05:36;6.85;;;1.98;;
1294;SDS011;640;48.310;11.728;2023-04-25T00:08:05;3.78;;;2.35;;
1294;SDS011;640;48.310;11.728;2023-04-25T00:10:34;4.47;;;2.25;;
1294;SDS011;640;48.310;11.728;2023-04-25T00:13:02;4.57;;;2.28;;
1294;SDS011;640;48.310;11.728;2023-04-25T00:15:30;3.97;;;2.17;;
1294;SDS011;640;48.310;11.728;2023-04-25T00:18:00;4.40;;;2.30;;
1294;SDS011;640;48.310;11.728;2023-04-25T00:20:28;2.97;;;2.07;;
1294;SDS011;640;48.310;11.728;2023-04-25T00:22:57;4.60;;;1.90;;
1294;SDS011;640;48.310;11.728;2023-04-25T00:25:26;3.67;;;2.17;;
1294;SDS011;640;48.310;11.728;2023-04-25T00:28:01;5.00;;;2.17;;
1294;SDS011;640;48.310;11.728;2023-04-25T00:30:30;3.70;;;2.03;;
1294;SDS011;640;48.310;11.728;2023-04-25T00:32:59;2.75;;;2.05;;
1294;SDS011;640;48.310;11.728;2023-04-25T00:35:27;3.28;;;1.90;;
1294;SDS011;640;48.310;11.728;2023-04-25T00:37:56;3.35;;;1.67;;
1294;SDS011;640;48.310;11.728;2023-04-25T00:40:24;2.35;;;1.80;;
1294;SDS011;640;48.310;11.728;2023-04-25T00:42:52;2.58;;;1.88;;
1294;SDS011;640;48.310;11.728;2023-04-25T00:45:21;6.13;;;2.17;;
1294;SDS011;640;48.310;11.728;2023-04-25T00:47:49;5.38;;;2.25;;
1294;SDS011;640;48.310;11.728;2023-04-25T00:50:19;5.43;;;2.20;;
1294;SDS011;640;48.310;11.728;2023-04-25T00:52:47;2.85;;;1.98;;
1294;SDS011;640;48.310;11.728;2023-04-25T00:55:16;3.05;;;2.00;;
1294;SDS011;640;48.310;11.728;2023-04-25T00:57:44;5.18;;;1.60;;
1294;SDS011;640;48.310;11.728;2023-04-25T01:00:13;3.33;;;1.85;;
1294;SDS011;640;48.310;11.728;2023-04-25T01:02:42;5.20;;;2.10;;
1294;SDS011;640;48.310;11.728;2023-04-25T01:05:11;3.22;;;2.00;;
1294;SDS011;640;48.310;11.728;2023-04-25T01:07:41;3.45;;;2.10;;
1294;SDS011;640;48.310;11.728;2023-04-25T01:10:10;2.40;;;1.70;;
1294;SDS011;640;48.310;11.728;2023-04-25T01:12:38;3.22;;;1.73;;
1294;SDS011;640;48.310;11.728;2023-04-25T01:15:06;3.58;;;2.00;;
1294;SDS011;640;48.310;11.728;2023-04-25T01:17:35;9.88;;;2.20;;
1294;SDS011;640;48.310;11.728;2023-04-25T01:20:04;4.32;;;1.92;;
1294;SDS011;640;48.310;11.728;2023-04-25T01:22:35;4.10;;;1.90;;
1294;SDS011;640;48.310;11.728;2023-04-25T01:25:04;5.15;;;2.05;;
1294;SDS011;640;48.310;11.728;2023-04-25T01:27:33;2.85;;;2.05;;
1294;SDS011;640;48.310;11.728;2023-04-25T01:30:01;3.35;;;2.17;;
1294;SDS011;640;48.310;11.728;2023-04-25T01:32:30;2.88;;;1.88;;
1294;SDS011;640;48.310;11.728;2023-04-25T01:35:05;2.70;;;2.08;;
1294;SDS011;640;48.310;11.728;2023-04-25T01:37:37;3.17;;;2.17;;
1294;SDS011;640;48.310;11.728;2023-04-25T01:40:06;4.90;;;2.63;;
1294;SDS011;640;48.310;11.728;2023-04-25T01:42:36;5.55;;;2.15;;
1294;SDS011;640;48.310;11.728;2023-04-25T01:45:06;4.00;;;1.90;;
1294;SDS011;640;48.310;11.728;2023-04-25T01:47:35;2.80;;;2.17;;
1294;SDS011;640;48.310;11.728;2023-04-25T01:50:05;4.32;;;2.40;;
1294;SDS011;640;48.310;11.728;2023-04-25T01:52:34;5.78;;;2.83;;
1294;SDS011;640;48.310;11.728;2023-04-25T01:55:05;3.63;;;2.20;;
1294;SDS011;640;48.310;11.728;2023-04-25T01:57:34;4.13;;;2.15;;
1294;SDS011;640;48.310;11.728;2023-04-25T02:00:03;3.08;;;1.98;;
1294;SDS011;640;48.310;11.728;2023-04-25T02:02:35;3.67;;;2.10;;
1294;SDS011;640;48.310;11.728;2023-04-25T02:05:04;2.75;;;2.00;;
1294;SDS011;640;48.310;11.728;2023-04-25T02:07:33;3.65;;;2.00;;
1294;SDS011;640;48.310;11.728;2023-04-25T02:10:01;7.03;;;2.60;;
1294;SDS011;640;48.310;11.728;2023-04-25T02:12:31;2.97;;;1.88;;
1294;SDS011;640;48.310;11.728;2023-04-25T02:15:00;3.43;;;2.33;;
1294;SDS011;640;48.310;11.728;2023-04-25T02:17:28;3.47;;;2.20;;
1294;SDS011;640;48.310;11.728;2023-04-25T02:19:58;4.15;;;2.33;;
1294;SDS011;640;48.310;11.728;2023-04-25T02:22:26;4.90;;;2.40;;
1294;SDS011;640;48.310;11.728;2023-04-25T02:24:57;3.45;;;2.17;;
1294;SDS011;640;48.310;11.728;2023-04-25T02:27:25;4.75;;;2.40;;
1294;SDS011;640;48.310;11.728;2023-04-25T02:29:55;8.77;;;2.40;;
1294;SDS011;640;48.310;11.728;2023-04-25T02:32:23;3.85;;;2.30;;
1294;SDS011;640;48.310;11.728;2023-04-25T02:34:51;4.32;;;2.22;;
1294;SDS011;640;48.310;11.728;2023-04-25T02:37:19;3.08;;;2.22;;
1294;SDS011;640;48.310;11.728;2023-04-25T02:39:48;4.32;;;2.33;;
1294;SDS011;640;48.310;11.728;2023-04-25T02:42:16;3.58;;;2.30;;
1294;SDS011;640;48.310;11.728;2023-04-25T02:44:45;5.80;;;2.60;;
1294;SDS011;640;48.310;11.728;2023-04-25T02:47:14;4.32;;;2.10;;
1294;SDS011;640;48.310;11.728;2023-04-25T02:49:43;3.20;;;2.17;;
1294;SDS011;640;48.310;11.728;2023-04-25T02:52:11;3.35;;;2.30;;
1294;SDS011;640;48.310;11.728;2023-04-25T02:54:40;6.30;;;2.45;;
1294;SDS011;640;48.310;11.728;2023-04-25T02:57:08;4.60;;;2.17;;
1294;SDS011;640;48.310;11.728;2023-04-25T02:59:36;6.57;;;2.17;;
1294;SDS011;640;48.310;11.728;2023-04-25T03:02:05;3.05;;;2.00;;
1294;SDS011;640;48.310;11.728;2023-04-25T03:04:34;3.25;;;2.30;;
1294;SDS011;640;48.310;11.728;2023-04-25T03:07:03;5.32;;;2.30;;
1294;SDS011;640;48.310;11.728;2023-04-25T03:09:32;5.18;;;1.80;;
1294;SDS011;640;48.310;11.728;2023-04-25T03:12:00;6.80;;;2.33;;
1294;SDS011;640;48.310;11.728;2023-04-25T03:14:28;3.92;;;2.20;;
1294;SDS011;640;48.310;11.728;2023-04-25T03:16:56;3.47;;;1.95;;
1294;SDS011;640;48.310;11.728;2023-04-25T03:19:25;3.45;;;1.83;;
1294;SDS011;640;48.310;11.728;2023-04-25T03:21:55;3.78;;;2.10;;
1294;SDS011;640;48.310;11.728;2023-04-25T03:24:23;4.97;;;1.92;;
1294;SDS011;640;48.310;11.728;2023-04-25T03:26:51;4.32;;;1.92;;
1294;SDS011;640;48.310;11.728;2023-04-25T03:29:19;3.13;;;1.92;;
1294;SDS011;640;48.310;11.728;2023-04-25T03:31:51;2.05;;;1.33;;
1294;SDS011;640;48.310;11.728;2023-04-25T03:34:19;3.67;;;1.58;;
1294;SDS011;640;48.310;11.728;2023-04-25T03:36:48;2.58;;;1.77;;
1294;SDS011;640;48.310;11.728;2023-04-25T03:39:18;3.17;;;1.85;;
1294;SDS011;640;48.310;11.728;2023-04-25T03:41:46;3.47;;;2.00;;
1294;SDS011;640;48.310;11.728;2023-04-25T03:44:14;2.97;;;1.45;;
1294;SDS011;640;48.310;11.728;2023-04-25T03:46:43;4.07;;;1.90;;
1294;SDS011;640;48.310;11.728;2023-04-25T03:49:11;2.40;;;1.55;;
1294;SDS011;640;48.310;11.728;2023-04-25T03:51:39;3.60;;;1.88;;
1294;SDS011;640;48.310;11.728;2023-04-25T03:54:07;2.90;;;1.95;;
1294;SDS011;640;48.310;11.728;2023-04-25T03:56:37;4.25;;;2.40;;
1294;SDS011;640;48.310;11.728;2023-04-25T03:59:05;4.63;;;2.40;;
1294;SDS011;640;48.310;11.728;2023-04-25T04:01:34;2.33;;;1.80;;
1294;SDS011;640;48.310;11.728;2023-04-25T04:04:02;3.78;;;2.50;;
1294;SDS011;640;48.310;11.728;2023-04-25T04:06:31;3.90;;;2.70;;
1294;SDS011;640;48.310;11.728;2023-04-25T04:09:00;4.63;;;2.45;;
1294;SDS011;640;48.310;11.728;2023-04-25T04:11:29;4.93;;;2.42;;
1294;SDS011;640;48.310;11.728;2023-04-25T04:13:59;5.88;;;2.38;;
1294;SDS011;640;48.310;11.728;2023-04-25T04:16:27;3.33;;;2.20;;
1294;SDS011;640;48.310;11.728;2023-04-25T04:18:58;4.70;;;2.17;;
1294;SDS011;640;48.310;11.728;2023-04-25T04:21:26;3.90;;;1.88;;
1294;SDS011;640;48.310;11.728;2023-04-25T04:23:55;3.15;;;2.20;;
1294;SDS011;640;48.310;11.728;2023-04-25T04:26:24;3.40;;;2.15;;
1294;SDS011;640;48.310;11.728;2023-04-25T04:28:53;4.18;;;2.05;;
1294;SDS011;640;48.310;11.728;2023-04-25T04:31:23;6.18;;;2.40;;
1294;SDS011;640;48.310;11.728;2023-04-25T04:33:51;3.92;;;1.90;;
1294;SDS011;640;48.310;11.728;2023-04-25T04:36:19;2.88;;;1.83;;
1294;SDS011;640;48.310;11.728;2023-04-25T04:38:48;4.68;;;1.90;;
1294;SDS011;640;48.310;11.728;2023-04-25T04:41:17;3.47;;;2.05;;
1294;SDS011;640;48.310;11.728;2023-04-25T04:46:16;3.75;;;1.77;;
1294;SDS011;640;48.310;11.728;2023-04-25T04:48:46;3.65;;;1.70;;
1294;SDS011;640;48.310;11.728;2023-04-25T04:51:14;2.22;;;1.73;;
1294;SDS011;640;48.310;11.728;2023-04-25T04:53:43;5.25;;;2.50;;
1294;SDS011;640;48.310;11.728;2023-04-25T04:56:11;4.13;;;1.60;;
1294;SDS011;640;48.310;11.728;2023-04-25T04:58:39;3.45;;;1.70;;
1294;SDS011;640;48.310;11.728;2023-04-25T05:01:08;3.65;;;1.77;;
1294;SDS011;640;48.310;11.728;2023-04-25T05:03:36;5.05;;;1.80;;
1294;SDS011;640;48.310;11.728;2023-04-25T05:06:06;3.78;;;1.48;;
1294;SDS011;640;48.310;11.728;2023-04-25T05:08:35;2.28;;;1.70;;
1294;SDS011;640;48.310;11.728;2023-04-25T05:11:04;3.53;;;1.42;;
1294;SDS011;640;48.310;11.728;2023-04-25T05:13:32;3.33;;;1.42;;
1294;SDS011;640;48.310;11.728;2023-04-25T05:16:00;4.65;;;1.40;;
1294;SDS011;640;48.310;11.728;2023-04-25T05:18:29;1.63;;;1.15;;
1294;SDS011;640;48.310;11.728;2023-04-25T05:20:57;3.92;;;1.17;;
1294;SDS011;640;48.310;11.728;2023-04-25T05:23:27;3.65;;;1.30;;
1294;SDS011;640;48.310;11.728;2023-04-25T05:25:59;4.40;;;1.15;;
1294;SDS011;640;48.310;11.728;2023-04-25T05:28:27;2.25;;;1.35;;
1294;SDS011;640;48.310;11.728;2023-04-25T05:30:55;6.13;;;1.52;;
1294;SDS011;640;48.310;11.728;2023-04-25T05:33:24;4.47;;;1.40;;
1294;SDS011;640;48.310;11.728;2023-04-25T05:35:52;2.30;;;1.35;;
1294;SDS011;640;48.310;11.728;2023-04-25T05:38:20;2.00;;;1.27;;
1294;SDS011;640;48.310;11.728;2023-04-25T05:40:50;4.43;;;1.55;;
1294;SDS011;640;48.310;11.728;2023-04-25T05:43:18;2.75;;;1.60;;
1294;SDS011;640;48.310;11.728;2023-04-25T05:45:47;2.38;;;1.35;;
1294;SDS011;640;48.310;11.728;2023-04-25T05:48:15;1.90;;;1.42;;
1294;SDS011;640;48.310;11.728;2023-04-25T05:50:43;3.40;;;1.50;;
1294;SDS011;640;48.310;11.728;2023-04-25T05:53:12;2.53;;;1.13;;
1294;SDS011;640;48.310;11.728;2023-04-25T05:55:40;2.65;;;1.55;;
1294;SDS011;640;48.310;11.728;2023-04-25T05:58:10;1.50;;;1.13;;
1294;SDS011;640;48.310;11.728;2023-04-25T06:00:38;3.60;;;1.30;;
1294;SDS011;640;48.310;11.728;2023-04-25T06:03:08;3.17;;;1.75;;
1294;SDS011;640;48.310;11.728;2023-04-25T06:05:37;4.97;;;1.77;;
1294;SDS011;640;48.310;11.728;2023-04-25T06:08:05;3.20;;;1.70;;
1294;SDS011;640;48.310;11.728;2023-04-25T06:10:34;3.97;;;1.77;;
1294;SDS011;640;48.310;11.728;2023-04-25T06:13:02;4.57;;;1.40;;
1294;SDS011;640;48.310;11.728;2023-04-25T06:15:32;1.63;;;0.90;;
1294;SDS011;640;48.310;11.728;2023-04-25T06:18:00;2.10;;;1.52;;
1294;SDS011;640;48.310;11.728;2023-04-25T06:20:29;4.97;;;2.03;;
1294;SDS011;640;48.310;11.728;2023-04-25T06:22:57;4.80;;;2.60;;
1294;SDS011;640;48.310;11.728;2023-04-25T06:25:26;4.82;;;1.95;;
1294;SDS011;640;48.310;11.728;2023-04-25T06:27:54;5.40;;;2.60;;
1294;SDS011;640;48.310;11.728;2023-04-25T06:30:23;5.03;;;2.15;;
1294;SDS011;640;48.310;11.728;2023-04-25T06:32:53;3.27;;;2.20;;
1294;SDS011;640;48.310;11.728;2023-04-25T06:35:22;3.40;;;1.80;;
1294;SDS011;640;48.310;11.728;2023-04-25T06:37:50;5.85;;;2.20;;
1294;SDS011;640;48.310;11.728;2023-04-25T06:40:18;4.95;;;2.10;;
1294;SDS011;640;48.310;11.728;2023-04-25T06:42:47;3.25;;;1.70;;
1294;SDS011;640;48.310;11.728;2023-04-25T06:45:15;2.60;;;1.80;;
1294;SDS011;640;48.310;11.728;2023-04-25T06:47:43;3.63;;;1.98;;
1294;SDS011;640;48.310;11.728;2023-04-25T06:50:13;3.70;;;1.60;;
1294;SDS011;640;48.310;11.728;2023-04-25T06:52:41;5.87;;;1.83;;
1294;SDS011;640;48.310;11.728;2023-04-25T06:55:09;4.53;;;2.22;;
1294;SDS011;640;48.310;11.728;2023-04-25T06:57:38;4.55;;;2.13;;
1294;SDS011;640;48.310;11.728;2023-04-25T07:00:06;3.55;;;2.03;;
1294;SDS011;640;48.310;11.728;2023-04-25T07:02:36;5.80;;;2.15;;
1294;SDS011;640;48.310;11.728;2023-04-25T07:05:05;2.83;;;1.45;;
1294;SDS011;640;48.310;11.728;2023-04-25T07:07:34;1.80;;;1.30;;
1294;SDS011;640;48.310;11.728;2023-04-25T07:10:03;3.97;;;1.30;;
1294;SDS011;640;48.310;11.728;2023-04-25T07:12:32;5.43;;;1.83;;
1294;SDS011;640;48.310;11.728;2023-04-25T07:15:00;4.57;;;2.00;;
1294;SDS011;640;48.310;11.728;2023-04-25T07:17:32;3.70;;;2.20;;
1294;SDS011;640;48.310;11.728;2023-04-25T07:20:01;4.93;;;2.30;;
1294;SDS011;640;48.310;11.728;2023-04-25T07:22:30;4.80;;;2.70;;
1294;SDS011;640;48.310;11.728;2023-04-25T07:25:00;4.20;;;2.58;;
1294;SDS011;640;48.310;11.728;2023-04-25T07:27:28;4.75;;;2.10;;
1294;SDS011;640;48.310;11.728;2023-04-25T07:29:57;5.40;;;2.45;;
1294;SDS011;640;48.310;11.728;2023-04-25T07:32:25;4.10;;;2.00;;
1294;SDS011;640;48.310;11.728;2023-04-25T07:34:54;3.72;;;1.70;;
1294;SDS011;640;48.310;11.728;2023-04-25T07:37:22;3.03;;;1.35;;
1294;SDS011;640;48.310;11.728;2023-04-25T07:39:52;2.90;;;1.40;;
1294;SDS011;640;48.310;11.728;2023-04-25T07:42:22;2.35;;;1.30;;
1294;SDS011;640;48.310;11.728;2023-04-25T07:44:50;2.72;;;1.40;;
1294;SDS011;640;48.310;11.728;2023-04-25T07:47:19;4.43;;;1.85;;
1294;SDS011;640;48.310;11.728;2023-04-25T07:49:47;2.53;;;1.27;;
1294;SDS011;640;48.310;11.728;2023-04-25T07:52:16;4.97;;;2.00;;
1294;SDS011;640;48.310;11.728;2023-04-25T07:54:44;4.05;;;1.73;;
1294;SDS011;640;48.310;11.728;2023-04-25T07:57:14;2.30;;;1.80;;
1294;SDS011;640;48.310;11.728;2023-04-25T07:59:45;2.20;;;1.65;;
1294;SDS011;640;48.310;11.728;2023-04-25T08:02:13;5.82;;;1.90;;
1294;SDS011;640;48.310;11.728;2023-04-25T08:04:41;3.47;;;1.45;;
1294;SDS011;640;48.310;11.728;2023-04-25T08:07:10;2.95;;;1.60;;
1294;SDS011;640;48.310;11.728;2023-04-25T08:09:38;3.75;;;2.00;;
1294;SDS011;640;48.310;11.728;2023-04-25T08:12:06;5.25;;;2.35;;
1294;SDS011;640;48.310;11.728;2023-04-25T08:14:35;4.00;;;1.88;;
1294;SDS011;640;48.310;11.728;2023-04-25T08:17:05;4.95;;;2.13;;
1294;SDS011;640;48.310;11.728;2023-04-25T08:19:33;2.87;;;1.93;;
1294;SDS011;640;48.310;11.728;2023-04-25T08:22:02;5.88;;;2.00;;
1294;SDS011;640;48.310;11.728;2023-04-25T08:24:30;6.85;;;1.90;;
1294;SDS011;640;48.310;11.728;2023-04-25T08:26:58;3.15;;;1.60;;
1294;SDS011;640;48.310;11.728;2023-04-25T08:29:27;2.83;;;1.95;;
1294;SDS011;640;48.310;11.728;2023-04-25T08:31:55;3.42;;;1.52;;
1294;SDS011;640;48.310;11.728;2023-04-25T08:34:25;5.50;;;1.58;;
1294;SDS011;640;48.310;11.728;2023-04-25T08:36:53;4.90;;;1.93;;
1294;SDS011;640;48.310;11.728;2023-04-25T08:39:21;4.18;;;1.65;;
1294;SDS011;640;48.310;11.728;2023-04-25T08:41:50;2.42;;;1.52;;
1294;SDS011;640;48.310;11.728;2023-04-25T08:44:19;3.40;;;1.40;;
1294;SDS011;640;48.310;11.728;2023-04-25T08:46:49;3.30;;;1.63;;
1294;SDS011;640;48.310;11.728;2023-04-25T08:49:21;2.67;;;1.55;;
1294;SDS011;640;48.310;11.728;2023-04-25T08:51:51;2.70;;;1.48;;
1294;SDS011;640;48.310;11.728;2023-04-25T08:57:02;1.63;;;1.20;;
1294;SDS011;640;48.310;11.728;2023-04-25T08:59:32;3.15;;;1.27;;
1294;SDS011;640;48.310;11.728;2023-04-25T09:02:03;2.95;;;1.40;;
1294;SDS011;640;48.310;11.728;2023-04-25T09:04:31;1.70;;;1.30;;
1294;SDS011;640;48.310;11.728;2023-04-25T09:07:01;3.80;;;1.38;;
1294;SDS011;640;48.310;11.728;2023-04-25T09:09:29;3.47;;;1.20;;
1294;SDS011;640;48.310;11.728;2023-04-25T09:11:58;4.43;;;1.45;;
1294;SDS011;640;48.310;11.728;2023-04-25T09:14:28;1.45;;;1.08;;
1294;SDS011;640;48.310;11.728;2023-04-25T09:16:57;2.42;;;0.93;;
1294;SDS011;640;48.310;11.728;2023-04-25T09:19:27;2.72;;;1.25;;
1294;SDS011;640;48.310;11.728;2023-04-25T09:22:00;3.78;;;1.35;;
1294;SDS011;640;48.310;11.728;2023-04-25T09:24:31;2.47;;;0.93;;
1294;SDS011;640;48.310;11.728;2023-04-25T09:29:33;2.75;;;1.10;;
1294;SDS011;640;48.310;11.728;2023-04-25T09:32:13;1.50;;;1.10;;
1294;SDS011;640;48.310;11.728;2023-04-25T09:34:44;1.40;;;0.70;;
1294;SDS011;640;48.310;11.728;2023-04-25T09:37:19;2.55;;;1.40;;
1294;SDS011;640;48.310;11.728;2023-04-25T09:39:48;4.65;;;1.40;;
1294;SDS011;640;48.310;11.728;2023-04-25T09:42:18;3.58;;;1.50;;
1294;SDS011;640;48.310;11.728;2023-04-25T09:44:51;4.47;;;1.02;;
1294;SDS011;640;48.310;11.728;2023-04-25T09:47:20;1.70;;;0.80;;
1294;SDS011;640;48.310;11.728;2023-04-25T09:49:50;2.50;;;1.17;;
1294;SDS011;640;48.310;11.728;2023-04-25T09:52:21;2.30;;;1.25;;
1294;SDS011;640;48.310;11.728;2023-04-25T09:54:52;1.23;;;0.73;;
1294;SDS011;640;48.310;11.728;2023-04-25T09:57:21;2.00;;;1.30;;
1294;SDS011;640;48.310;11.728;2023-04-25T09:59:51;0.98;;;0.88;;
1294;SDS011;640;48.310;11.728;2023-04-25T10:02:21;1.45;;;0.88;;
1294;SDS011;640;48.310;11.728;2023-04-25T10:04:50;2.72;;;0.80;;
1294;SDS011;640;48.310;11.728;2023-04-25T10:07:23;1.10;;;0.68;;
1294;SDS011;640;48.310;11.728;2023-04-25T10:09:54;3.45;;;1.02;;
1294;SDS011;640;48.310;11.728;2023-04-25T10:12:26;1.98;;;1.02;;
1294;SDS011;640;48.310;11.728;2023-04-25T10:14:54;1.60;;;0.70;;
1294;SDS011;640;48.310;11.728;2023-04-25T10:17:23;2.47;;;1.20;;
1294;SDS011;640;48.310;11.728;2023-04-25T10:19:51;2.88;;;1.30;;
1294;SDS011;640;48.310;11.728;2023-04-25T10:22:20;4.30;;;1.25;;
1294;SDS011;640;48.310;11.728;2023-04-25T10:24:54;1.90;;;1.10;;
1294;SDS011;640;48.310;11.728;2023-04-25T10:27:23;1.05;;;0.63;;
1294;SDS011;640;48.310;11.728;2023-04-25T10:30:00;2.63;;;0.93;;
1294;SDS011;640;48.310;11.728;2023-04-25T10:32:31;2.23;;;1.30;;
1294;SDS011;640;48.310;11.728;2023-04-25T10:35:09;1.52;;;0.98;;
1294;SDS011;640;48.310;11.728;2023-04-25T10:37:42;3.38;;;1.60;;
1294;SDS011;640;48.310;11.728;2023-04-25T10:40:24;1.17;;;0.80;;
1294;SDS011;640;48.310;11.728;2023-04-25T10:42:52;3.53;;;1.00;;
1294;SDS011;640;48.310;11.728;2023-04-25T10:45:21;3.13;;;1.15;;
1294;SDS011;640;48.310;11.728;2023-04-25T10:47:50;1.58;;;1.00;;
1294;SDS011;640;48.310;11.728;2023-04-25T10:50:18;1.58;;;0.98;;
1294;SDS011;640;48.310;11.728;2023-04-25T10:52:48;1.38;;;1.10;;
1294;SDS011;640;48.310;11.728;2023-04-25T10:55:16;3.90;;;0.93;;
1294;SDS011;640;48.310;11.728;2023-04-25T10:57:45;2.20;;;0.80;;
1294;SDS011;640;48.310;11.728;2023-04-25T11:00:15;1.45;;;0.80;;
1294;SDS011;640;48.310;11.728;2023-04-25T11:02:46;1.50;;;1.00;;
1294;SDS011;640;48.310;11.728;2023-04-25T11:05:18;2.22;;;1.02;;
1294;SDS011;640;48.310;11.728;2023-04-25T11:07:51;1.92;;;1.10;;
1294;SDS011;640;48.310;11.728;2023-04-25T11:10:33;1.25;;;0.93;;
1294;SDS011;640;48.310;11.728;2023-04-25T11:13:03;2.67;;;1.33;;
1294;SDS011;640;48.310;11.728;2023-04-25T11:15:31;10.13;;;2.72;;
1294;SDS011;640;48.310;11.728;2023-04-25T11:17:59;7.43;;;2.65;;
1294;SDS011;640;48.310;11.728;2023-04-25T11:20:28;5.95;;;3.67;;
1294;SDS011;640;48.310;11.728;2023-04-25T11:22:58;6.00;;;4.03;;
1294;SDS011;640;48.310;11.728;2023-04-25T11:25:27;8.00;;;4.65;;
1294;SDS011;640;48.310;11.728;2023-04-25T11:27:58;5.47;;;3.63;;
1294;SDS011;640;48.310;11.728;2023-04-25T11:30:28;8.02;;;3.40;;
1294;SDS011;640;48.310;11.728;2023-04-25T11:32:57;5.90;;;3.13;;
1294;SDS011;640;48.310;11.728;2023-04-25T11:35:25;3.03;;;1.75;;
1294;SDS011;640;48.310;11.728;2023-04-25T11:37:54;4.97;;;2.38;;
1294;SDS011;640;48.310;11.728;2023-04-25T11:40:23;2.50;;;1.40;;
1294;SDS011;640;48.310;11.728;2023-04-25T11:42:52;4.78;;;1.67;;
1294;SDS011;640;48.310;11.728;2023-04-25T11:45:21;2.60;;;1.73;;
1294;SDS011;640;48.310;11.728;2023-04-25T11:47:51;6.90;;;2.55;;
1294;SDS011;640;48.310;11.728;2023-04-25T11:50:19;2.85;;;1.77;;
1294;SDS011;640;48.310;11.728;2023-04-25T11:52:48;3.65;;;1.90;;
1294;SDS011;640;48.310;11.728;2023-04-25T11:55:18;3.70;;;1.63;;
1294;SDS011;640;48.310;11.728;2023-04-25T12:02:51;3.22;;;2.20;;
1294;SDS011;640;48.310;11.728;2023-04-25T12:05:23;7.05;;;2.28;;
1294;SDS011;640;48.310;11.728;2023-04-25T12:08:11;3.60;;;1.85;;
1294;SDS011;640;48.310;11.728;2023-04-25T12:13:23;4.25;;;2.80;;
1294;SDS011;640;48.310;11.728;2023-04-25T12:15:53;5.00;;;2.90;;
1294;SDS011;640;48.310;11.728;2023-04-25T12:18:23;5.93;;;3.60;;
1294;SDS011;640;48.310;11.728;2023-04-25T12:20:54;4.05;;;2.97;;
1294;SDS011;640;48.310;11.728;2023-04-25T12:23:26;4.10;;;2.60;;
1294;SDS011;640;48.310;11.728;2023-04-25T12:25:55;6.90;;;2.35;;
1294;SDS011;640;48.310;11.728;2023-04-25T12:28:25;2.03;;;1.27;;
1294;SDS011;640;48.310;11.728;2023-04-25T12:30:55;1.92;;;1.38;;
1294;SDS011;640;48.310;11.728;2023-04-25T12:33:25;4.20;;;1.52;;
1294;SDS011;640;48.310;11.728;2023-04-25T12:35:54;1.27;;;0.80;;
1294;SDS011;640;48.310;11.728;2023-04-25T12:38:23;1.90;;;1.13;;
1294;SDS011;640;48.310;11.728;2023-04-25T12:40:52;2.65;;;1.08;;
1294;SDS011;640;48.310;11.728;2023-04-25T12:43:21;2.60;;;1.20;;
1294;SDS011;640;48.310;11.728;2023-04-25T12:45:51;1.55;;;0.98;;
1294;SDS011;640;48.310;11.728;2023-04-25T12:50:49;3.70;;;0.90;;
1294;SDS011;640;48.310;11.728;2023-04-25T12:53:18;1.20;;;0.77;;
1294;SDS011;640;48.310;11.728;2023-04-25T12:55:48;1.20;;;1.00;;
1294;SDS011;640;48.310;11.728;2023-04-25T12:58:17;1.60;;;1.00;;
1294;SDS011;640;48.310;11.728;2023-04-25T13:00:46;1.10;;;0.73;;
1294;SDS011;640;48.310;11.728;2023-04-25T13:03:16;4.43;;;1.02;;
1294;SDS011;640;48.310;11.728;2023-04-25T13:05:45;0.70;;;0.70;;
1294;SDS011;640;48.310;11.728;2023-04-25T13:08:14;1.45;;;1.27;;
1294;SDS011;640;48.310;11.728;2023-04-25T13:10:42;1.05;;;0.80;;
1294;SDS011;640;48.310;11.728;2023-04-25T13:13:10;1.52;;;0.93;;
1294;SDS011;640;48.310;11.728;2023-04-25T13:15:39;2.03;;;1.13;;
1294;SDS011;640;48.310;11.728;2023-04-25T13:18:07;2.33;;;1.00;;
1294;SDS011;640;48.310;11.728;2023-04-25T13:20:37;1.35;;;0.73;;
1294;SDS011;640;48.310;11.728;2023-04-25T13:23:05;3.83;;;1.05;;
1294;SDS011;640;48.310;11.728;2023-04-25T13:25:33;0.55;;;0.47;;
1294;SDS011;640;48.310;11.728;2023-04-25T13:28:02;0.85;;;0.85;;
1294;SDS011;640;48.310;11.728;2023-04-25T13:30:31;0.40;;;0.40;;
1294;SDS011;640;48.310;11.728;2023-04-25T13:32:59;1.02;;;0.60;;
1294;SDS011;640;48.310;11.728;2023-04-25T13:37:59;0.80;;;0.77;;
1294;SDS011;640;48.310;11.728;2023-04-25T13:40:29;1.02;;;0.60;;
1294;SDS011;640;48.310;11.728;2023-04-25T13:42:57;1.10;;;0.60;;
1294;SDS011;640;48.310;11.728;2023-04-25T13:45:26;1.17;;;0.60;;
1294;SDS011;640;48.310;11.728;2023-04-25T13:47:55;0.82;;;0.70;;
1294;SDS011;640;48.310;11.728;2023-04-25T13:50:23;1.63;;;0.77;;
1294;SDS011;640;48.310;11.728;2023-04-25T13:52:52;0.38;;;0.32;;
1294;SDS011;640;48.310;11.728;2023-04-25T13:55:22;0.57;;;0.40;;
1294;SDS011;640;48.310;11.728;2023-04-25T13:57:50;1.00;;;0.40;;
1294;SDS011;640;48.310;11.728;2023-04-25T14:00:19;0.60;;;0.47;;
1294;SDS011;640;48.310;11.728;2023-04-25T14:02:47;0.65;;;0.47;;
1294;SDS011;640;48.310;11.728;2023-04-25T14:05:16;0.40;;;0.40;;
1294;SDS011;640;48.310;11.728;2023-04-25T14:07:45;0.40;;;0.38;;
1294;SDS011;640;48.310;11.728;2023-04-25T14:10:13;0.52;;;0.30;;
1294;SDS011;640;48.310;11.728;2023-04-25T14:12:43;0.60;;;0.50;;
1294;SDS011;640;48.310;11.728;2023-04-25T14:15:12;1.20;;;0.60;;
1294;SDS011;640;48.310;11.728;2023-04-25T14:17:40;0.75;;;0.50;;
1294;SDS011;640;48.310;11.728;2023-04-25T14:20:09;0.30;;;0.30;;
1294;SDS011;640;48.310;11.728;2023-04-25T14:22:38;0.50;;;0.40;;
1294;SDS011;640;48.310;11.728;2023-04-25T14:25:09;0.60;;;0.50;;
1294;SDS011;640;48.310;11.728;2023-04-25T14:27:38;0.40;;;0.40;;
1294;SDS011;640;48.310;11.728;2023-04-25T14:30:09;0.65;;;0.40;;
1294;SDS011;640;48.310;11.728;2023-04-25T14:32:38;0.73;;;0.60;;
1294;SDS011;640;48.310;11.728;2023-04-25T14:35:07;1.17;;;0.40;;
1294;SDS011;640;48.310;11.728;2023-04-25T14:37:37;2.27;;;0.60;;
1294;SDS011;640;48.310;11.728;2023-04-25T14:40:06;0.93;;;0.63;;
1294;SDS011;640;48.310;11.728;2023-04-25T14:42:37;0.80;;;0.60;;
1294;SDS011;640;48.310;11.728;2023-04-25T14:45:06;1.33;;;0.90;;
1294;SDS011;640;48.310;11.728;2023-04-25T14:47:37;1.92;;;0.82;;
1294;SDS011;640;48.310;11.728;2023-04-25T14:50:06;3.50;;;0.98;;
1294;SDS011;640;48.310;11.728;2023-04-25T14:52:35;0.98;;;0.85;;
1294;SDS011;640;48.310;11.728;2023-04-25T14:55:04;4.50;;;1.00;;
1294;SDS011;640;48.310;11.728;2023-04-25T14:57:32;1.23;;;0.77;;
1294;SDS011;640;48.310;11.728;2023-04-25T15:00:01;2.63;;;1.20;;
1294;SDS011;640;48.310;11.728;2023-04-25T15:02:36;0.80;;;0.65;;
1294;SDS011;640;48.310;11.728;2023-04-25T15:05:05;1.67;;;1.13;;
1294;SDS011;640;48.310;11.728;2023-04-25T15:07:35;1.67;;;1.23;;
1294;SDS011;640;48.310;11.728;2023-04-25T15:10:04;0.77;;;0.60;;
1294;SDS011;640;48.310;11.728;2023-04-25T15:12:37;1.08;;;0.80;;
1294;SDS011;640;48.310;11.728;2023-04-25T15:15:06;1.40;;;1.00;;
1294;SDS011;640;48.310;11.728;2023-04-25T15:17:44;0.98;;;0.60;;
1294;SDS011;640;48.310;11.728;2023-04-25T15:20:13;1.10;;;1.00;;
1294;SDS011;640;48.310;11.728;2023-04-25T15:22:42;1.15;;;0.80;;
1294;SDS011;640;48.310;11.728;2023-04-25T15:25:11;0.70;;;0.60;;
1294;SDS011;640;48.310;11.728;2023-04-25T15:27:39;2.83;;;0.93;;
1294;SDS011;640;48.310;11.728;2023-04-25T15:30:10;1.45;;;0.70;;
1294;SDS011;640;48.310;11.728;2023-04-25T15:32:42;0.68;;;0.47;;
1294;SDS011;640;48.310;11.728;2023-04-25T15:35:12;0.82;;;0.80;;
1294;SDS011;640;48.310;11.728;2023-04-25T15:40:10;1.20;;;0.88;;
1294;SDS011;640;48.310;11.728;2023-04-25T15:42:40;1.63;;;1.00;;
1294;SDS011;640;48.310;11.728;2023-04-25T15:45:10;1.50;;;1.10;;
1294;SDS011;640;48.310;11.728;2023-04-25T15:47:39;0.98;;;0.77;;
1294;SDS011;640;48.310;11.728;2023-04-25T15:50:08;2.47;;;1.20;;